ADDS METAR Data INFO
IDs: Format: Raw Decoded Include TAF

Data at: 1052 UTC 18 Aug 2017

KPNA 181035Z AUTO 29005KT 10SM CLR 02/00 A3033 RMK AO2
KPNA 181015Z AUTO 29006KT 10SM CLR 03/00 A3033 RMK AO2
KPNA 180955Z AUTO 29007KT 10SM CLR 02/00 A3033 RMK AO2
KPNA 180935Z AUTO 28006KT 10SM CLR 03/00 A3032 RMK AO2
KPNA 180915Z AUTO 31007KT 10SM CLR 03/00 A3033 RMK AO2
KPNA 180855Z AUTO 31003KT 10SM CLR 04/00 A3033 RMK AO2
KPNA 180835Z AUTO 28003KT 10SM CLR 03/00 A3033 RMK AO2
KPNA 180815Z AUTO 28005KT 10SM CLR 04/00 A3033 RMK AO2
KPNA 180755Z AUTO 28005KT 10SM CLR 05/00 A3033 RMK AO2
KPNA 180735Z AUTO 34003KT 10SM CLR 06/01 A3033 RMK AO2
KPNA 180715Z AUTO 30003KT 10SM CLR 06/01 A3033 RMK AO2
KPNA 180655Z AUTO 32004KT 10SM CLR 06/01 A3033 RMK AO2
KPNA 180635Z AUTO 27008KT 10SM CLR 06/01 A3033 RMK AO2
KPNA 180615Z AUTO 26005KT 10SM CLR 07/01 A3033 RMK AO2
KPNA 180555Z AUTO 33005KT 10SM CLR 07/01 A3033 RMK AO2
KPNA 180535Z AUTO 30005KT 10SM CLR 08/01 A3033 RMK AO2
KPNA 180515Z AUTO 32006KT 10SM CLR 09/01 A3034 RMK AO2
KPNA 180455Z AUTO 36003KT 10SM CLR 10/02 A3034 RMK AO2
KPNA 180435Z AUTO 31003KT 10SM CLR 10/01 A3034 RMK AO2
KPNA 180415Z AUTO 28004KT 10SM CLR 10/01 A3033 RMK AO2
KPNA 180355Z AUTO 26005KT 10SM CLR 11/02 A3033 RMK AO2
KPNA 180335Z AUTO 32004KT 10SM CLR 12/01 A3032 RMK AO2
KPNA 180315Z AUTO 33006KT 10SM CLR 13/01 A3032 RMK AO2
KPNA 180255Z AUTO 30006KT 10SM CLR 15/00 A3031 RMK AO2
KPNA 180235Z AUTO 29008KT 10SM CLR 16/00 A3029 RMK AO2
KPNA 180215Z AUTO 29008KT 10SM CLR 17/00 A3029 RMK AO2
KPNA 180155Z AUTO 29010KT 10SM CLR 19/00 A3029 RMK AO2
KPNA 180135Z AUTO 28010KT 10SM CLR 20/M01 A3027 RMK AO2
KPNA 180115Z AUTO 29012KT 10SM CLR 21/M02 A3027 RMK AO2
KPNA 180055Z AUTO 29012G18KT 10SM CLR 22/M03 A3026 RMK AO2
KPNA 180035Z AUTO 28016G20KT 10SM CLR 22/M03 A3026 RMK AO2
KPNA 180015Z AUTO 28014G22KT 10SM CLR 22/M03 A3026 RMK AO2
KPNA 172355Z AUTO 29018G22KT 10SM CLR 23/M03 A3026 RMK AO2
KPNA 172335Z AUTO 28015G22KT 10SM CLR 23/M03 A3026 RMK AO2
KPNA 172315Z AUTO 29015G24KT 10SM CLR 23/M03 A3026 RMK AO2
KPNA 172255Z AUTO 29014G21KT 10SM CLR 23/M03 A3026 RMK AO2
KPNA 172235Z AUTO 29015G21KT 10SM CLR 24/M03 A3026 RMK AO2
KPNA 172215Z AUTO 29014G20KT 10SM CLR 24/M03 A3026 RMK AO2
KPNA 172155Z AUTO 31015G27KT 10SM SCT100 24/M04 A3026 RMK AO2
KPNA 172135Z AUTO 31021G27KT 10SM SCT100 24/M02 A3026 RMK AO2
KPNA 172115Z AUTO 29016G25KT 10SM SCT095 24/M03 A3026 RMK AO2
KPNA 172055Z AUTO 30012G19KT 10SM SCT095 22/M02 A3026 RMK AO2
KPNA 172035Z AUTO 30010G23KT 10SM SCT095 23/M02 A3026 RMK AO2
KPNA 172015Z AUTO 29013G22KT 10SM BKN095 23/M02 A3026 RMK AO2
KPNA 171955Z AUTO 30017G24KT 10SM BKN095 BKN120 24/M01 A3027 RMK AO2
KPNA 171935Z AUTO 28010KT 270V330 10SM BKN095 23/M01 A3027 RMK AO2
KPNA 171915Z AUTO 32010KT 10SM BKN085 BKN100 22/00 A3027 RMK AO2
KPNA 171855Z AUTO 32003KT 10SM SCT085 22/00 A3027 RMK AO2
KPNA 171835Z AUTO 29011G16KT 10SM SCT085 21/00 A3029 RMK AO2
KPNA 171815Z AUTO 26007G18KT 10SM SCT080 21/00 A3029 RMK AO2
KPNA 171755Z AUTO 24003KT 10SM SCT080 20/00 A3029 RMK AO2
KPNA 171735Z AUTO 33003KT 10SM CLR 20/00 A3029 RMK AO2
KPNA 171715Z AUTO 00000KT 10SM CLR 20/00 A3030 RMK AO2
KPNA 171655Z AUTO 00000KT 10SM CLR 20/00 A3030 RMK AO2
KPNA 171635Z AUTO 00000KT 10SM CLR 19/00 A3030 RMK AO2
KPNA 171615Z AUTO 00000KT 10SM CLR 18/02 A3031 RMK AO2
KPNA 171555Z AUTO 00000KT 10SM CLR 17/02 A3031 RMK AO2
KPNA 171535Z AUTO 00000KT 10SM SCT085 15/03 A3031 RMK AO2
KPNA 171515Z AUTO 00000KT 10SM CLR 13/03 A3030 RMK AO2
KPNA 171455Z AUTO 00000KT 10SM CLR 12/03 A3030 RMK AO2
KPNA 171435Z AUTO 32003KT 10SM SCT095 10/03 A3030 RMK AO2
KPNA 171415Z AUTO 30005KT 10SM BKN095 07/02 A3030 RMK AO2
KPNA 171355Z AUTO 30006KT 10SM SCT085 07/02 A3030 RMK AO2
KPNA 171335Z AUTO 31007KT 10SM SCT100 05/02 A3030 RMK AO2
KPNA 171315Z AUTO 29005KT 10SM BKN100 03/02 A3029 RMK AO2
KPNA 171255Z AUTO 29005KT 10SM SCT100 02/01 A3029 RMK AO2
KPNA 171235Z AUTO 29005KT 10SM CLR 02/01 A3028 RMK AO2
KPNA 171215Z AUTO 30005KT 10SM CLR 02/01 A3027 RMK AO2
KPNA 171155Z AUTO 31006KT 10SM CLR 02/01 A3027 RMK AO2
KPNA 171135Z AUTO 30005KT 10SM CLR 02/01 A3027 RMK AO2
KPNA 171115Z AUTO 29004KT 10SM CLR 02/01 A3027 RMK AO2
KPNA 171055Z AUTO 29005KT 10SM CLR 03/02 A3027 RMK AO2
KPNA 171035Z AUTO 32006KT 10SM CLR 03/02 A3026 RMK AO2
KPNA 171015Z AUTO 29006KT 10SM CLR 03/02 A3026 RMK AO2
KPNA 170955Z AUTO 31005KT 10SM CLR 04/02 A3026 RMK AO2
KPNA 170935Z AUTO 28004KT 10SM CLR 03/02 A3026 RMK AO2
KPNA 170915Z AUTO 29005KT 10SM CLR 03/02 A3026 RMK AO2
KPNA 170855Z AUTO 29004KT 10SM CLR 03/02 A3026 RMK AO2
KPNA 170835Z AUTO 31005KT 10SM CLR 05/02 A3025 RMK AO2
KPNA 170815Z AUTO 32005KT 10SM CLR 05/02 A3026 RMK AO2
KPNA 170755Z AUTO 32005KT 10SM CLR 05/02 A3026 RMK AO2
KPNA 170735Z AUTO 29004KT 10SM CLR 05/02 A3026 RMK AO2
KPNA 170715Z AUTO 28006KT 10SM CLR 06/02 A3026 RMK AO2
KPNA 170655Z AUTO 31006KT 10SM CLR 06/03 A3026 RMK AO2
KPNA 170635Z AUTO 28005KT 10SM CLR 06/03 A3026 RMK AO2
KPNA 170615Z AUTO 32003KT 10SM CLR 08/02 A3026 RMK AO2
KPNA 170555Z AUTO 00000KT 10SM CLR 08/03 A3026 RMK AO2
KPNA 170535Z AUTO 34005KT 10SM CLR 08/03 A3025 RMK AO2
KPNA 170515Z AUTO 32004KT 10SM CLR 09/03 A3025 RMK AO2
KPNA 170455Z AUTO 30003KT 10SM CLR 10/03 A3025 RMK AO2
KPNA 170435Z AUTO 23003KT 10SM CLR 11/03 A3024 RMK AO2
KPNA 170415Z AUTO 00000KT 10SM SCT100 13/03 A3024 RMK AO2
KPNA 170355Z AUTO 29003KT 10SM SCT100 12/03 A3024 RMK AO2
KPNA 170335Z AUTO 31003KT 10SM CLR 13/04 A3023 RMK AO2
KPNA 170315Z AUTO 34004KT 10SM CLR 14/03 A3022 RMK AO2
KPNA 170255Z AUTO 29003KT 10SM CLR 14/02 A3022 RMK AO2
KPNA 170235Z AUTO 30004KT 10SM CLR 15/03 A3021 RMK AO2
KPNA 170215Z AUTO 27003KT 10SM CLR 17/05 A3021 RMK AO2
KPNA 170155Z AUTO 00000KT 10SM CLR 19/02 A3020 RMK AO2
KPNA 170135Z AUTO 00000KT 10SM CLR 20/01 A3020 RMK AO2
KPNA 170115Z AUTO 00000KT 10SM SCT095 20/00 A3020 RMK AO2
KPNA 170055Z AUTO 00000KT 10SM SCT095 21/00 A3019 RMK AO2
KPNA 170035Z AUTO 00000KT 10SM SCT095 SCT120 21/00 A3021 RMK AO2
KPNA 170015Z AUTO 25004KT 10SM OVC095 20/01 A3021 RMK AO2
KPNA 162355Z AUTO 23011KT 10SM SCT085 OVC100 20/00 A3021 RMK AO2
KPNA 162335Z AUTO 26004KT 10SM BKN085 BKN100 20/00 A3021 RMK AO2
KPNA 162315Z AUTO 26009KT 10SM BKN085 21/00 A3021 RMK AO2
KPNA 162255Z AUTO 27005KT 10SM CLR 21/00 A3021 RMK AO2